Main page
METAR-TAF:

METAR-TAF

Airports :

Mykonos International Airport

Mykonos, Greece

latitude: 37-26-09N, longitude: 025-20-45E, elevation: 123 m

Current weather observation

The report was made 36 minutes ago, at 02:50 UTC
Wind 16 kt from the North
Temperature 17°C
Humidity 94%
Pressure 1018 hPa
Visibility: 8000 m
Few clouds at a height of 1000 ft

METAR: LGMK 160250Z 35016KT 8000 FEW010 17/16 Q1018

Time: 06:26 (03:26 UTC)

Forecast

The report was made 1 hour and 26 minutes ago, at 02:00 UTC
Forecast valid from 16 at 03 UTC to 16 at 12 UTC
Wind 16 kt from the North
Visibility: 8000 m
Few clouds at a height of 1000 ft
Scattered clouds at a height of 1800 ft
Becoming
from 16 at 06 UTC to 16 at 08 UTC
Wind 16 kt from the North with gusts up to 26 kt

TAF: LGMK 160200Z 1603/1612 36016KT 8000 FEW010 SCT018 BECMG 1606/1608 36016G26KT

Weather observations and forecasts of more than 4000 airports (METAR and TAF reports).

The available stations are represented by yellow and red dots on the map.

Hover mouse over dot to see the name of the station.

Then click to see weather observations and forecasts.

To change the map : click on the green buttons with a black cross to zoom in, on the green button with a dash to zoom out, or on the green arrows for adjacent maps.


METAR-TAF: